createdAt,value
2022-11-23T00:03:21.871Z,1.92
2022-11-23T00:08:29.357Z,1.50
2022-11-23T00:13:42.643Z,1.73
2022-11-23T00:18:53.375Z,1.85
2022-11-23T00:24:05.842Z,1.95
2022-11-23T00:29:24.467Z,1.80
2022-11-23T00:34:27.764Z,1.60
2022-11-23T00:39:32.175Z,2.13
2022-11-23T00:44:41.690Z,1.63
2022-11-23T00:49:48.901Z,1.60
2022-11-23T00:55:02.539Z,5.25
2022-11-23T01:00:36.498Z,4.47
2022-11-23T01:05:49.391Z,2.30
2022-11-23T01:11:03.863Z,1.60
2022-11-23T01:16:24.674Z,1.63
2022-11-23T01:21:36.200Z,1.60
2022-11-23T01:26:44.807Z,1.33
2022-11-23T01:31:52.015Z,1.60
2022-11-23T01:37:01.205Z,1.48
2022-11-23T01:42:12.756Z,1.60
2022-11-23T01:47:23.988Z,1.58
2022-11-23T01:52:29.429Z,1.77
2022-11-23T01:57:39.796Z,1.60
2022-11-23T02:05:18.212Z,1.65
2022-11-23T02:10:26.956Z,1.48
2022-11-23T02:15:29.338Z,1.45
2022-11-23T02:25:54.570Z,1.65
2022-11-23T02:31:38.293Z,1.65
2022-11-23T02:37:00.762Z,1.17
2022-11-23T02:42:09.584Z,1.70
2022-11-23T02:47:26.640Z,1.00
2022-11-23T02:52:33.079Z,1.45
2022-11-23T02:57:36.053Z,1.60
2022-11-23T03:02:40.570Z,2.15
2022-11-23T03:07:45.321Z,1.33
2022-11-23T03:12:53.641Z,1.30
2022-11-23T03:17:57.860Z,1.20
2022-11-23T03:23:10.677Z,1.40
2022-11-23T03:28:16.029Z,1.60
2022-11-23T03:38:39.588Z,1.33
2022-11-23T03:43:59.501Z,1.80
2022-11-23T03:49:13.834Z,1.50
2022-11-23T03:54:21.177Z,1.25
2022-11-23T03:59:26.405Z,1.42
2022-11-23T04:04:33.713Z,1.50
2022-11-23T04:09:49.371Z,1.23
2022-11-23T04:15:07.911Z,1.75
2022-11-23T04:20:17.191Z,1.58
2022-11-23T04:25:21.655Z,1.38
2022-11-23T04:30:28.683Z,1.45
2022-11-23T04:35:41.241Z,1.35
2022-11-23T04:40:54.048Z,1.88
2022-11-23T04:46:01.446Z,1.45
2022-11-23T04:51:10.239Z,1.80
2022-11-23T04:56:32.999Z,1.40
2022-11-23T05:01:42.449Z,1.75
2022-11-23T05:07:11.096Z,1.48
2022-11-23T05:12:24.356Z,1.33
2022-11-23T05:17:37.113Z,1.60
2022-11-23T05:22:48.529Z,1.50
2022-11-23T05:28:03.671Z,1.80
2022-11-23T05:33:19.393Z,1.92
2022-11-23T05:38:25.753Z,1.77
2022-11-23T05:43:44.884Z,2.03
2022-11-23T05:48:59.055Z,1.75
2022-11-23T05:54:08.216Z,2.00
2022-11-23T05:59:34.234Z,2.00
2022-11-23T06:04:57.402Z,2.00
2022-11-23T06:10:22.918Z,2.33
2022-11-23T06:15:31.980Z,2.20
2022-11-23T06:20:39.208Z,2.20
2022-11-23T06:25:44.519Z,2.17
2022-11-23T06:31:08.414Z,2.40
2022-11-23T06:36:20.321Z,2.53
2022-11-23T06:41:32.165Z,2.30
2022-11-23T06:46:43.352Z,3.10
2022-11-23T06:51:48.018Z,2.90
2022-11-23T06:56:58.442Z,2.58
2022-11-23T07:02:02.319Z,2.25
2022-11-23T07:07:20.600Z,2.10
2022-11-23T07:12:34.814Z,2.22
2022-11-23T07:17:48.707Z,2.17
2022-11-23T07:23:08.157Z,1.83
2022-11-23T07:28:25.152Z,2.05
2022-11-23T07:33:30.023Z,2.10
2022-11-23T07:38:44.307Z,2.45
2022-11-23T07:44:04.805Z,2.20
2022-11-23T07:49:12.385Z,2.55
2022-11-23T07:54:25.811Z,2.30
2022-11-23T07:59:32.774Z,2.17
2022-11-23T08:04:44.130Z,2.15
2022-11-23T08:09:51.554Z,2.30
2022-11-23T08:15:02.079Z,2.53
2022-11-23T08:20:06.153Z,2.25
2022-11-23T08:25:10.788Z,2.53
2022-11-23T08:30:23.184Z,2.88
2022-11-23T08:35:28.685Z,3.45
2022-11-23T08:40:36.076Z,4.50
2022-11-23T08:45:44.402Z,4.30
2022-11-23T08:50:52.531Z,4.13
2022-11-23T08:56:08.861Z,3.83
2022-11-23T09:01:19.746Z,4.78
2022-11-23T09:06:32.236Z,4.38
2022-11-23T09:11:39.205Z,4.53
2022-11-23T09:16:49.627Z,4.47
2022-11-23T09:21:58.838Z,3.88
2022-11-23T09:27:08.284Z,3.00
2022-11-23T09:32:24.038Z,3.10
2022-11-23T09:37:31.627Z,2.80
2022-11-23T09:43:11.753Z,2.30
2022-11-23T09:48:24.820Z,2.55
2022-11-23T09:54:12.562Z,2.30
2022-11-23T09:59:38.032Z,2.80
2022-11-23T10:04:44.811Z,2.75
2022-11-23T10:10:18.144Z,2.40
2022-11-23T10:16:09.378Z,3.25
2022-11-23T10:21:48.193Z,3.58
2022-11-23T10:27:04.674Z,3.25
2022-11-23T10:32:41.448Z,3.17
2022-11-23T10:37:48.055Z,2.63
2022-11-23T10:43:04.718Z,2.00
2022-11-23T10:48:37.105Z,1.70
2022-11-23T10:53:42.005Z,1.45
2022-11-23T10:58:49.375Z,1.42
2022-11-23T11:03:56.578Z,1.42
2022-11-23T11:09:31.790Z,1.40
2022-11-23T11:14:43.524Z,1.30
2022-11-23T11:19:57.641Z,1.48
2022-11-23T11:25:39.075Z,1.55
2022-11-23T11:31:15.311Z,1.30
2022-11-23T11:36:24.771Z,1.25
2022-11-23T11:41:40.429Z,1.50
2022-11-23T11:47:04.829Z,1.35
2022-11-23T11:52:27.336Z,1.67
2022-11-23T11:58:18.838Z,1.30
2022-11-23T12:03:58.935Z,1.35
2022-11-23T12:09:10.269Z,1.55
2022-11-23T12:14:18.937Z,1.50
2022-11-23T12:19:43.513Z,1.58
2022-11-23T12:25:34.675Z,1.67
2022-11-23T12:31:05.989Z,1.67
2022-11-23T12:36:59.450Z,2.13
2022-11-23T12:42:30.420Z,1.67
2022-11-23T12:48:12.965Z,1.90
2022-11-23T12:53:54.868Z,1.83
2022-11-23T12:59:11.536Z,2.20
2022-11-23T13:04:54.375Z,1.90
2022-11-23T13:10:29.287Z,2.05
2022-11-23T13:16:21.287Z,1.63
2022-11-23T13:21:41.484Z,1.90
2022-11-23T13:26:47.176Z,3.47
2022-11-23T13:32:33.306Z,2.42
2022-11-23T13:37:59.684Z,1.50
2022-11-23T13:43:41.948Z,1.88
2022-11-23T13:49:01.487Z,10.98
2022-11-23T13:54:22.828Z,3.30
2022-11-23T13:59:50.263Z,3.42
2022-11-23T14:04:52.964Z,1.75
2022-11-23T14:16:00.961Z,1.90
2022-11-23T14:21:31.601Z,1.80
2022-11-23T14:27:45.144Z,1.63
2022-11-23T14:33:12.770Z,1.10
2022-11-23T14:38:20.449Z,1.30
2022-11-23T14:43:28.271Z,1.40
2022-11-23T14:48:42.394Z,1.23
2022-11-23T14:54:08.267Z,1.10
2022-11-23T14:59:29.351Z,1.00
2022-11-23T15:04:50.816Z,1.00
2022-11-23T15:10:07.678Z,0.90
2022-11-23T15:15:41.639Z,1.20
2022-11-23T15:20:55.244Z,1.10
2022-11-23T15:26:46.736Z,1.40
2022-11-23T15:32:28.638Z,1.10
2022-11-23T15:37:35.654Z,1.30
2022-11-23T15:42:57.633Z,1.30
2022-11-23T15:48:13.732Z,1.63
2022-11-23T15:53:21.828Z,1.60
2022-11-23T15:58:34.682Z,1.58
2022-11-23T16:04:04.376Z,1.60
2022-11-23T16:09:52.697Z,1.80
2022-11-23T16:15:40.790Z,1.73
2022-11-23T16:21:06.073Z,1.60
2022-11-23T16:26:34.592Z,2.03
2022-11-23T16:31:43.292Z,1.65
2022-11-23T16:36:50.373Z,2.00
2022-11-23T16:41:55.881Z,1.80
2022-11-23T16:47:20.303Z,1.40
2022-11-23T16:52:31.048Z,1.70
2022-11-23T16:57:48.722Z,1.40
2022-11-23T17:02:58.343Z,1.42
2022-11-23T17:08:23.281Z,1.20
2022-11-23T17:13:36.423Z,1.52
2022-11-23T17:18:46.287Z,1.25
2022-11-23T17:23:58.181Z,1.00
2022-11-23T17:29:12.379Z,1.00
2022-11-23T17:34:20.937Z,1.67
2022-11-23T17:39:29.926Z,1.80
2022-11-23T17:44:37.574Z,1.52
2022-11-23T17:49:53.242Z,1.20
2022-11-23T17:54:57.356Z,1.27
2022-11-23T18:00:26.386Z,1.67
2022-11-23T18:05:33.469Z,1.73
2022-11-23T18:10:44.309Z,2.53
2022-11-23T18:15:51.099Z,1.73
2022-11-23T18:20:58.766Z,1.70
2022-11-23T18:26:23.717Z,2.40
2022-11-23T18:31:28.854Z,1.88
2022-11-23T18:36:35.957Z,1.70
2022-11-23T18:41:44.107Z,1.50
2022-11-23T18:46:49.380Z,2.03
2022-11-23T18:51:53.115Z,1.90
2022-11-23T18:56:55.332Z,2.00
2022-11-23T19:02:02.697Z,3.17
2022-11-23T19:07:07.165Z,2.85
2022-11-23T19:12:16.483Z,2.33
2022-11-23T19:17:22.882Z,2.35
2022-11-23T19:22:30.739Z,1.92
2022-11-23T19:28:01.536Z,2.88
2022-11-23T19:33:15.154Z,3.50
2022-11-23T19:38:21.338Z,4.13
2022-11-23T19:43:26.634Z,4.05
2022-11-23T19:48:35.066Z,4.82
2022-11-23T19:53:40.212Z,4.13
2022-11-23T19:58:52.956Z,3.85
2022-11-23T20:04:06.895Z,2.97
2022-11-23T20:09:23.477Z,3.90
2022-11-23T20:14:27.845Z,3.50
2022-11-23T20:19:43.224Z,3.20
2022-11-23T20:24:47.002Z,2.67
2022-11-23T20:30:02.345Z,2.63
2022-11-23T20:35:11.712Z,3.60
2022-11-23T20:40:19.731Z,3.20
2022-11-23T20:45:28.292Z,3.15
2022-11-23T20:50:38.896Z,5.32
2022-11-23T20:56:27.496Z,4.70
2022-11-23T21:01:42.629Z,3.50
2022-11-23T21:06:50.454Z,2.47
2022-11-23T21:12:16.591Z,2.70
2022-11-23T21:17:25.038Z,3.45
2022-11-23T21:22:32.314Z,3.10
2022-11-23T21:27:35.981Z,3.20
2022-11-23T21:32:40.893Z,3.55
2022-11-23T21:37:46.549Z,3.38
2022-11-23T21:42:56.198Z,3.40
2022-11-23T21:48:15.616Z,3.15
2022-11-23T21:53:28.446Z,3.80
2022-11-23T21:58:31.480Z,4.03
2022-11-23T22:03:44.381Z,3.80
2022-11-23T22:09:00.505Z,3.40
2022-11-23T22:14:10.905Z,3.13
2022-11-23T22:19:16.532Z,3.38
2022-11-23T22:24:33.804Z,2.75
2022-11-23T22:29:39.619Z,2.92
2022-11-23T22:34:53.353Z,3.35
2022-11-23T22:39:56.971Z,3.42
2022-11-23T22:45:01.936Z,2.92
2022-11-23T22:50:33.517Z,3.03
2022-11-23T22:55:46.194Z,3.22
2022-11-23T23:00:52.504Z,3.17
2022-11-23T23:06:00.234Z,3.35
2022-11-23T23:11:09.737Z,2.42
2022-11-23T23:16:14.380Z,3.25
2022-11-23T23:21:24.309Z,2.85
2022-11-23T23:26:31.840Z,2.40
2022-11-23T23:31:37.521Z,3.05
2022-11-23T23:36:46.868Z,3.03
2022-11-23T23:41:52.746Z,2.85
2022-11-23T23:46:58.756Z,3.15
2022-11-23T23:52:04.794Z,5.38
2022-11-23T23:57:13.361Z,3.10
